Time;durP1;ratioP1;P1;durP2;ratioP2;P2;SDS_P1;SDS_P2;PMS_P1;PMS_P2;Temp;Humidity;BMP_temperature;BMP_pressure;BME280_temperature;BME280_humidity;BME280_pressure;Samples;Min_cycle;Max_cycle;Signal;HPM_P1;HPM_P2
2023/06/10 00:45:28;;;;;;;12.80;10.10;;;;;;;19.71;70.60;98695.24;221862;193;676942;-65
2023/06/10 00:50:34;;;;;;;;;;;;;;;19.62;70.98;98690.02;223836;180;135983;-67
2023/06/10 00:55:37;;;;;;;14.00;10.10;;;;;;;19.60;70.89;98687.77;223912;181;143540;-66
2023/06/10 01:00:41;;;;;;;12.70;10.60;;;;;;;19.61;71.29;98690.11;223842;182;139510;-66
2023/06/10 01:05:55;;;;;;;12.30;10.50;;;;;;;19.75;71.03;98696.34;223851;181;137079;-66
2023/06/10 01:11:01;;;;;;;15.60;10.90;;;;;;;19.73;70.96;98698.64;223790;181;143877;-66
2023/06/10 01:16:04;;;;;;;16.90;10.90;;;;;;;19.70;71.04;98695.92;223775;181;138769;-66
2023/06/10 01:21:09;;;;;;;13.20;10.20;;;;;;;19.67;71.36;98698.06;223825;182;137054;-65
2023/06/10 01:26:15;;;;;;;11.90;10.40;;;;;;;19.66;71.42;98701.59;223817;182;145903;-66
2023/06/10 01:31:40;;;;;;;13.60;10.80;;;;;;;19.70;71.53;98698.48;223864;182;139317;-66
2023/06/10 01:36:48;;;;;;;13.10;11.20;;;;;;;19.75;71.55;98701.17;223739;182;137512;-66
2023/06/10 01:41:57;;;;;;;13.90;11.30;;;;;;;19.73;71.41;98705.89;223827;182;145192;-65
2023/06/10 01:47:01;;;;;;;15.40;11.90;;;;;;;19.70;71.53;98705.33;223788;182;138951;-65
2023/06/10 01:52:05;;;;;;;14.50;10.70;;;;;;;19.69;71.55;98705.36;223757;181;136877;-66
2023/06/10 01:57:09;;;;;;;17.00;10.40;;;;;;;19.70;71.68;98707.98;223847;182;145001;-66
2023/06/10 02:02:13;;;;;;;16.60;10.90;;;;;;;19.72;71.68;98709.36;223759;182;140454;-66
2023/06/10 02:07:16;;;;;;;13.40;11.00;;;;;;;19.74;71.53;98705.23;223807;181;137119;-65
2023/06/10 02:12:19;;;;;;;13.70;11.10;;;;;;;19.72;71.61;98700.92;223790;181;145093;-66
2023/06/10 02:17:23;;;;;;;17.30;11.20;;;;;;;19.70;71.59;98703.71;223687;181;138384;-66
2023/06/10 02:22:26;;;;;;;12.40;10.30;;;;;;;19.62;71.68;98702.48;223716;181;137033;-66
2023/06/10 02:27:30;;;;;;;12.60;10.00;;;;;;;19.57;71.75;98699.74;223845;181;145364;-65
2023/06/10 02:32:33;;;;;;;12.60;9.60;;;;;;;19.60;71.88;98701.75;223817;181;138795;-65
2023/06/10 02:37:38;;;;;;;11.60;10.20;;;;;;;19.61;71.89;98705.64;223809;181;138263;-66
2023/06/10 02:42:41;;;;;;;12.30;10.50;;;;;;;19.58;71.89;98704.16;223778;181;145861;-66
2023/06/10 02:47:49;;;;;;;16.90;10.00;;;;;;;19.55;71.96;98714.33;223850;181;138404;-65
2023/06/10 02:52:53;;;;;;;13.10;8.70;;;;;;;19.50;72.12;98718.64;223767;181;136847;-66
2023/06/10 02:57:56;;;;;;;12.60;9.20;;;;;;;19.51;72.21;98722.58;223813;181;145112;-66
2023/06/10 03:03:03;;;;;;;13.20;9.70;;;;;;;19.56;72.26;98732.08;223739;181;138356;-65
2023/06/10 03:08:10;;;;;;;13.90;9.70;;;;;;;19.61;72.17;98729.73;223822;182;137790;-66
2023/06/10 03:13:15;;;;;;;16.40;9.80;;;;;;;19.65;72.06;98734.97;223819;181;145196;-66
2023/06/10 03:18:20;;;;;;;13.10;9.50;;;;;;;19.60;72.08;98736.67;223776;181;138573;-65
2023/06/10 03:23:28;;;;;;;12.00;9.60;;;;;;;19.53;72.21;98739.23;223776;182;136531;-65
2023/06/10 03:28:32;;;;;;;12.50;9.70;;;;;;;19.50;72.39;98747.79;223724;182;145389;-66
2023/06/10 03:33:36;;;;;;;12.70;9.50;;;;;;;19.53;72.43;98752.02;223826;181;138687;-66
2023/06/10 03:38:39;;;;;;;13.00;9.90;;;;;;;19.56;72.50;98744.11;223808;182;137073;-65
2023/06/10 03:43:44;;;;;;;13.30;9.80;;;;;;;19.57;72.48;98744.21;223818;182;146850;-66
2023/06/10 03:48:48;;;;;;;;;;;;;;;19.57;72.47;98755.55;223751;181;138718;-66
2023/06/10 03:53:52;;;;;;;18.30;9.90;;;;;;;19.53;72.42;98755.96;223848;181;130245;-66
2023/06/10 03:58:57;;;;;;;10.60;8.90;;;;;;;19.51;72.58;98757.58;223783;181;145111;-66
2023/06/10 04:04:01;;;;;;;14.20;8.30;;;;;;;19.55;72.62;98763.73;223714;181;138269;-65
2023/06/10 04:09:09;;;;;;;12.60;8.80;;;;;;;19.63;72.44;98765.80;223781;183;139438;-66
2023/06/10 04:14:13;;;;;;;10.80;8.00;;;;;;;19.66;72.24;98770.04;223789;181;145320;-65
2023/06/10 04:19:18;;;;;;;;;;;;;;;19.69;72.21;98770.52;223705;181;139469;-66
2023/06/10 04:24:22;;;;;;;12.40;8.40;;;;;;;19.72;71.78;98770.45;223828;181;130088;-65
2023/06/10 04:29:26;;;;;;;14.20;7.70;;;;;;;19.74;71.60;98767.90;223722;181;145547;-66
2023/06/10 04:50:42;;;;;;;9.80;6.60;;;;;;;19.97;70.50;98778.05;221233;193;665914;-66
2023/06/10 04:55:46;;;;;;;8.70;5.80;;;;;;;19.97;70.16;98778.24;223808;182;135679;-66
2023/06/10 05:00:50;;;;;;;11.70;6.10;;;;;;;20.00;69.76;98786.37;223746;183;144585;-66
2023/06/10 05:05:53;;;;;;;7.90;5.60;;;;;;;19.99;69.66;98790.41;223903;182;138435;-66
2023/06/10 05:10:58;;;;;;;9.10;5.40;;;;;;;20.00;69.55;98799.50;223846;182;136254;-65
2023/06/10 05:16:02;;;;;;;10.90;5.60;;;;;;;20.11;69.24;98800.60;223630;182;143548;-65
2023/06/10 05:21:06;;;;;;;10.20;5.40;;;;;;;20.11;68.85;98804.85;223775;182;139042;-66
2023/06/10 05:26:09;;;;;;;9.00;5.30;;;;;;;20.18;68.61;98802.83;223868;182;136455;-66
2023/06/10 05:31:12;;;;;;;7.40;5.20;;;;;;;20.26;68.42;98801.31;223822;182;145056;-66
2023/06/10 05:36:15;;;;;;;13.30;5.80;;;;;;;20.33;68.35;98803.77;223793;182;138102;-66
2023/06/10 05:41:20;;;;;;;11.60;5.30;;;;;;;20.43;67.73;98808.88;223826;182;137100;-66
2023/06/10 05:46:23;;;;;;;6.40;4.90;;;;;;;20.47;67.45;98813.83;223753;182;145282;-66
2023/06/10 05:51:28;;;;;;;7.50;5.00;;;;;;;20.49;67.26;98811.95;223830;183;139322;-66
2023/06/10 05:56:31;;;;;;;7.30;4.70;;;;;;;20.53;66.75;98821.27;223879;182;138212;-66
2023/06/10 06:01:34;;;;;;;7.20;5.50;;;;;;;20.53;66.12;98825.30;223705;183;145386;-66
2023/06/10 06:06:40;;;;;;;12.30;5.00;;;;;;;20.57;65.93;98827.77;223678;182;139464;-66
2023/06/10 06:11:43;;;;;;;;;;;;;;;20.62;66.25;98827.39;223727;182;136522;-66
2023/06/10 06:16:46;;;;;;;9.00;5.20;;;;;;;20.68;66.06;98826.00;223786;182;145125;-66
2023/06/10 06:21:49;;;;;;;8.00;5.50;;;;;;;20.68;65.76;98824.09;223786;182;138420;-66
2023/06/10 06:26:53;;;;;;;9.50;5.50;;;;;;;20.67;65.45;98821.25;223777;181;136190;-67
2023/06/10 06:31:56;;;;;;;6.60;5.30;;;;;;;20.70;65.50;98830.86;223788;181;145307;-67
2023/06/10 06:36:59;;;;;;;7.70;5.00;;;;;;;20.70;65.57;98832.31;223792;181;138946;-65
2023/06/10 06:42:06;;;;;;;9.00;4.30;;;;;;;20.79;65.42;98835.72;223799;181;137389;-66
2023/06/10 06:47:26;;;;;;;6.80;5.70;;;;;;;20.85;65.66;98846.23;223706;181;145129;-67
2023/06/10 06:52:29;;;;;;;7.60;5.10;;;;;;;20.93;65.34;98852.35;223745;181;138156;-66
2023/06/10 06:57:33;;;;;;;9.70;5.50;;;;;;;21.00;65.13;98857.76;223800;181;135986;-67
2023/06/10 07:02:36;;;;;;;8.50;5.40;;;;;;;21.07;65.39;98854.83;223716;182;146111;-66
2023/06/10 07:07:40;;;;;;;8.90;5.30;;;;;;;21.11;64.88;98860.20;223777;181;138388;-67
2023/06/10 07:12:43;;;;;;;7.60;5.00;;;;;;;21.08;64.63;98865.14;223748;181;136238;-66
2023/06/10 07:17:46;;;;;;;7.40;4.70;;;;;;;21.13;64.74;98873.50;223764;181;145388;-66
2023/06/10 07:22:49;;;;;;;7.40;5.20;;;;;;;21.19;64.50;98870.33;223751;181;138382;-66
2023/06/10 07:27:53;;;;;;;7.20;5.20;;;;;;;21.22;64.24;98868.34;223818;181;136652;-67
2023/06/10 07:32:56;;;;;;;12.20;5.00;;;;;;;21.31;64.55;98873.83;223783;181;145521;-65
2023/06/10 07:37:59;;;;;;;8.20;4.90;;;;;;;21.39;64.34;98875.52;223810;181;138476;-65
2023/06/10 07:43:06;;;;;;;7.20;5.40;;;;;;;21.47;63.91;98875.52;223836;181;138815;-66
2023/06/10 07:48:09;;;;;;;6.60;4.60;;;;;;;21.58;63.70;98872.92;223788;182;145821;-65
2023/06/10 07:53:13;;;;;;;7.70;4.70;;;;;;;21.64;63.63;98874.22;223712;183;138880;-68
2023/06/10 07:58:16;;;;;;;9.70;4.90;;;;;;;21.73;64.25;98878.98;223668;183;137051;-67
2023/06/10 08:03:20;;;;;;;5.70;4.50;;;;;;;21.78;64.17;98882.40;223673;182;145428;-67
2023/06/10 08:08:23;;;;;;;7.90;4.70;;;;;;;21.82;63.65;98879.58;223644;182;139397;-67
2023/06/10 08:13:26;;;;;;;8.70;4.60;;;;;;;21.85;63.26;98886.36;223809;183;136460;-67
2023/06/10 08:18:30;;;;;;;7.00;4.70;;;;;;;21.85;63.11;98874.02;223568;183;145910;-67
2023/06/10 08:23:33;;;;;;;4.70;4.20;;;;;;;21.90;62.88;98882.22;223643;182;139045;-66
2023/06/10 08:28:37;;;;;;;6.50;4.70;;;;;;;21.94;62.65;98880.04;223655;182;136932;-66
2023/06/10 08:33:42;;;;;;;6.50;4.90;;;;;;;21.97;62.60;98878.61;223716;183;145427;-68
2023/06/10 08:38:45;;;;;;;9.20;4.40;;;;;;;22.05;62.80;98877.24;223692;183;138471;-68
2023/06/10 08:43:59;;;;;;;5.30;4.50;;;;;;;22.20;62.96;98880.08;223819;182;137282;-67
2023/06/10 08:49:05;;;;;;;5.70;5.10;;;;;;;22.41;62.54;98871.48;223653;181;145752;-67
2023/06/10 08:54:25;;;;;;;7.60;5.10;;;;;;;22.49;62.15;98874.41;223751;182;140043;-71
2023/06/10 08:59:29;;;;;;;5.90;4.50;;;;;;;22.56;61.81;98875.46;223845;181;136531;-71
2023/06/10 09:04:32;;;;;;;5.10;4.60;;;;;;;22.62;61.62;98874.22;223722;181;145312;-69
2023/06/10 09:09:36;;;;;;;5.60;4.40;;;;;;;22.68;61.35;98881.24;223721;182;140001;-71
2023/06/10 09:14:39;;;;;;;7.20;4.60;;;;;;;22.67;60.96;98877.59;223762;182;137447;-71
2023/06/10 09:19:44;;;;;;;4.80;4.30;;;;;;;22.63;61.12;98877.92;223693;181;144971;-68
2023/06/10 09:24:48;;;;;;;5.30;4.20;;;;;;;22.67;61.14;98882.16;223753;181;138938;-66
2023/06/10 09:29:54;;;;;;;5.80;4.40;;;;;;;22.67;60.69;98884.84;223815;181;136524;-66
2023/06/10 09:34:57;;;;;;;5.20;4.60;;;;;;;22.58;60.21;98887.70;223746;181;145337;-66
2023/06/10 09:40:05;;;;;;;9.20;4.60;;;;;;;22.59;60.14;98890.33;223715;181;139145;-65
2023/06/10 09:45:09;;;;;;;6.40;4.70;;;;;;;22.64;59.99;98890.37;223579;181;137408;-66
2023/06/10 09:50:13;;;;;;;5.90;4.40;;;;;;;22.60;60.14;98896.16;223803;182;145124;-66
2023/06/10 09:55:17;;;;;;;5.00;3.90;;;;;;;22.52;60.38;98896.70;223710;181;138296;-67
2023/06/10 10:00:22;;;;;;;5.70;4.40;;;;;;;22.56;60.31;98894.78;223725;182;136627;-66
2023/06/10 10:05:27;;;;;;;5.80;4.20;;;;;;;22.66;60.28;98890.41;223722;181;145232;-66
2023/06/10 10:10:33;;;;;;;4.50;3.80;;;;;;;22.63;59.98;98891.95;223770;181;138868;-66
2023/06/10 10:15:38;;;;;;;6.60;4.00;;;;;;;22.62;60.41;98896.48;223769;181;136526;-66
2023/06/10 10:20:47;;;;;;;4.50;3.60;;;;;;;22.63;60.45;98898.65;223730;181;145862;-66
2023/06/10 10:25:53;;;;;;;10.60;3.80;;;;;;;22.59;60.44;98902.92;223735;181;138484;-67
2023/06/10 10:31:07;;;;;;;6.20;3.80;;;;;;;22.55;60.79;98908.83;223827;181;136627;-66
2023/06/10 10:36:13;;;;;;;5.70;3.60;;;;;;;22.51;60.99;98908.40;223745;178;145039;-67
2023/06/10 10:41:18;;;;;;;8.10;3.90;;;;;;;22.48;61.01;98904.27;223672;181;140263;-66
2023/06/10 10:46:22;;;;;;;6.20;3.90;;;;;;;22.52;61.48;98905.61;223858;181;136935;-66
2023/06/10 10:51:25;;;;;;;4.30;3.60;;;;;;;22.60;61.13;98904.95;223808;181;145755;-67
2023/06/10 10:56:30;;;;;;;4.60;3.50;;;;;;;22.77;61.07;98901.73;223759;181;140131;-68
2023/06/10 11:01:45;;;;;;;6.30;3.80;;;;;;;23.17;60.16;98893.69;223817;181;137780;-68
2023/06/10 11:06:53;;;;;;;6.60;3.70;;;;;;;23.36;59.17;98892.76;223798;181;145935;-68
2023/06/10 11:12:01;;;;;;;6.80;3.30;;;;;;;23.29;58.37;98889.27;223805;181;137649;-68
2023/06/10 11:17:19;;;;;;;5.00;3.20;;;;;;;23.18;58.30;98891.86;223752;181;137320;-68
2023/06/10 11:22:23;;;;;;;6.90;3.30;;;;;;;23.13;58.22;98885.44;223618;181;145773;-68
2023/06/10 11:27:38;;;;;;;6.20;4.20;;;;;;;23.12;58.20;98883.04;223679;181;140099;-68
2023/06/10 11:32:43;;;;;;;4.70;3.60;;;;;;;23.19;58.42;98882.52;223758;181;139439;-68
2023/06/10 11:37:47;;;;;;;6.50;3.60;;;;;;;23.15;58.64;98886.59;223791;181;146258;-68
2023/06/10 11:42:51;;;;;;;7.60;3.90;;;;;;;23.10;59.24;98891.77;223826;181;139329;-67
2023/06/10 11:50:53;;;;;;;6.30;3.70;;;;;;;23.23;59.24;98893.92;221996;198;666170;-67
2023/06/10 11:55:57;;;;;;;6.50;3.20;;;;;;;23.44;58.26;98897.20;223553;184;136091;-66
2023/06/10 12:01:01;;;;;;;4.50;3.20;;;;;;;23.56;57.67;98890.57;223670;184;143762;-66
2023/06/10 12:06:06;;;;;;;9.10;2.90;;;;;;;23.84;57.14;98880.98;223786;183;139168;-65
2023/06/10 12:11:10;;;;;;;5.80;3.20;;;;;;;23.99;56.09;98880.91;223757;183;136325;-66
2023/06/10 12:16:14;;;;;;;4.40;2.90;;;;;;;24.10;55.43;98873.93;223850;182;143829;-66
2023/06/10 12:21:18;;;;;;;6.10;2.80;;;;;;;24.27;55.17;98874.96;223815;182;138434;-66
2023/06/10 12:26:36;;;;;;;4.60;2.80;;;;;;;24.38;54.56;98875.72;223794;182;137418;-67
2023/06/10 12:31:59;;;;;;;5.00;2.70;;;;;;;24.71;53.62;98867.98;223754;183;144051;-66
2023/06/10 12:37:15;;;;;;;3.90;2.40;;;;;;;25.00;52.25;98862.71;223801;183;138430;-66
2023/06/10 12:42:21;;;;;;;5.50;2.70;;;;;;;24.93;51.79;98862.67;223728;183;136710;-66
2023/06/10 12:47:34;;;;;;;5.00;2.60;;;;;;;25.03;51.99;98856.48;223798;183;147322;-66
2023/06/10 12:52:38;;;;;;;7.10;2.70;;;;;;;25.26;50.83;98857.88;223655;183;138657;-65
2023/06/10 12:57:49;;;;;;;5.60;2.60;;;;;;;25.45;49.70;98854.21;223732;183;137249;-66
2023/06/10 13:02:55;;;;;;;4.40;2.10;;;;;;;25.74;49.17;98853.08;223819;183;147333;-66
2023/06/10 13:08:27;;;;;;;5.90;2.90;;;;;;;25.78;48.28;98850.86;223734;183;138075;-66
2023/06/10 13:13:31;;;;;;;5.70;2.60;;;;;;;26.03;48.63;98844.21;223768;182;136175;-66
2023/06/10 13:18:37;;;;;;;3.50;2.80;;;;;;;26.12;47.90;98844.37;223860;183;145294;-67
2023/06/10 13:23:40;;;;;;;4.20;2.50;;;;;;;25.88;47.60;98850.32;223719;183;138486;-65
2023/06/10 13:28:44;;;;;;;3.20;2.50;;;;;;;25.51;47.90;98852.17;223677;183;136878;-66
2023/06/10 13:33:47;;;;;;;4.70;2.80;;;;;;;25.24;48.68;98854.36;223737;183;147384;-65
2023/06/10 13:38:51;;;;;;;3.60;2.30;;;;;;;25.18;48.92;98850.67;223673;184;138579;-68
2023/06/10 13:43:55;;;;;;;10.60;2.60;;;;;;;25.25;48.84;98853.84;223849;183;136547;-68
2023/06/10 13:48:58;;;;;;;2.70;1.90;;;;;;;25.37;48.67;98858.27;223670;183;145464;-66
2023/06/10 13:54:01;;;;;;;4.70;2.60;;;;;;;25.67;48.38;98857.55;223741;183;139613;-67
2023/06/10 13:59:05;;;;;;;3.50;2.10;;;;;;;25.94;47.98;98857.33;223773;183;137235;-67
2023/06/10 14:04:08;;;;;;;4.20;1.90;;;;;;;26.10;46.96;98858.58;223739;183;145070;-67
2023/06/10 14:09:16;;;;;;;2.50;1.90;;;;;;;26.03;46.84;98859.36;223668;183;138466;-68
2023/06/10 14:14:19;;;;;;;7.00;2.30;;;;;;;25.76;46.98;98860.27;223772;183;136867;-66
2023/06/10 14:19:22;;;;;;;4.40;2.30;;;;;;;25.47;47.58;98860.27;223643;183;144510;-65
2023/06/10 14:24:29;;;;;;;3.50;2.00;;;;;;;25.45;47.95;98854.88;223745;182;138745;-66
2023/06/10 14:29:33;;;;;;;4.00;2.10;;;;;;;25.16;47.98;98860.40;223754;179;135840;-66
2023/06/10 14:34:36;;;;;;;3.30;1.90;;;;;;;24.76;48.43;98858.48;223761;183;145665;-68
2023/06/10 14:39:42;;;;;;;2.60;2.10;;;;;;;24.48;49.23;98856.29;223756;183;138944;-66
2023/06/10 14:44:45;;;;;;;3.90;2.10;;;;;;;24.26;49.74;98863.13;223788;182;137126;-65
2023/06/10 14:50:46;;;;;;;2.60;2.30;;;;;;;24.18;50.21;98861.58;222049;203;665526;-65
2023/06/10 14:55:49;;;;;;;3.20;2.40;;;;;;;24.04;50.76;98867.27;223407;187;136299;-65
2023/06/10 15:00:53;;;;;;;6.00;2.50;;;;;;;23.87;50.91;98870.98;223353;187;143158;-66
2023/06/10 15:05:56;;;;;;;3.70;2.20;;;;;;;23.73;51.04;98864.98;223903;181;138864;-66
2023/06/10 15:11:01;;;;;;;4.40;2.00;;;;;;;23.60;50.80;98861.35;223853;181;138631;-65
2023/06/10 15:16:05;;;;;;;2.70;1.80;;;;;;;23.58;50.53;98862.56;223971;181;144032;-66
2023/06/10 15:21:09;;;;;;;3.80;2.30;;;;;;;23.62;50.34;98862.55;223913;182;138239;-66
2023/06/10 15:26:12;;;;;;;5.50;2.00;;;;;;;23.59;50.43;98867.96;223900;180;136393;-66
2023/06/10 15:31:15;;;;;;;3.30;2.20;;;;;;;23.52;50.27;98874.61;223931;180;143887;-65
2023/06/10 15:36:19;;;;;;;2.80;2.10;;;;;;;23.39;49.33;98871.24;223904;181;139842;-65
2023/06/10 15:41:22;;;;;;;3.50;2.40;;;;;;;23.28;49.02;98872.71;223976;180;136379;-66
2023/06/10 15:46:27;;;;;;;6.30;2.50;;;;;;;23.21;48.82;98876.10;223841;181;145777;-68
2023/06/10 15:52:27;;;;;;;5.40;2.10;;;;;;;23.22;48.93;98872.82;222401;189;665489;-66
2023/06/10 15:57:31;;;;;;;6.40;2.00;;;;;;;23.25;49.01;98875.11;223220;187;139424;-67
2023/06/10 16:02:34;;;;;;;8.30;2.20;;;;;;;23.27;48.82;98875.13;223711;183;143338;-67
2023/06/10 16:07:40;;;;;;;;;;;;;;;23.31;48.49;98889.02;223799;183;138244;-67
2023/06/10 16:12:48;;;;;;;6.10;2.90;;;;;;;23.26;48.80;98885.96;224036;180;129575;-66
2023/06/10 16:17:51;;;;;;;5.40;2.80;;;;;;;23.15;49.70;98890.48;224125;180;143462;-66
2023/06/10 16:22:54;;;;;;;6.00;2.40;;;;;;;23.02;50.32;98899.25;224066;180;138310;-66
2023/06/10 16:27:58;;;;;;;5.90;2.70;;;;;;;22.94;50.37;98904.79;223998;180;139052;-66
2023/06/10 16:33:01;;;;;;;4.20;2.80;;;;;;;22.86;50.84;98902.41;223863;180;144084;-66
2023/06/10 16:38:07;;;;;;;10.70;3.10;;;;;;;22.73;51.07;98907.46;224036;181;139190;-64
2023/06/10 16:43:11;;;;;;;4.60;2.80;;;;;;;22.60;51.64;98911.52;223813;181;136324;-64
2023/06/10 16:48:14;;;;;;;3.20;2.60;;;;;;;22.52;51.75;98918.73;223855;180;145494;-64
2023/06/10 16:53:18;;;;;;;4.50;2.70;;;;;;;22.49;52.10;98923.33;223730;180;138903;-64
2023/06/10 16:58:22;;;;;;;5.70;2.70;;;;;;;22.43;52.29;98928.49;223808;180;136466;-64
2023/06/10 17:03:25;;;;;;;4.80;2.70;;;;;;;22.42;52.74;98935.08;223821;181;145267;-63
2023/06/10 17:08:28;;;;;;;4.10;2.40;;;;;;;22.44;52.70;98933.88;223770;181;138875;-65
2023/06/10 17:13:31;;;;;;;6.00;3.10;;;;;;;22.41;52.30;98934.23;223783;181;136644;-65
2023/06/10 17:18:35;;;;;;;7.00;2.60;;;;;;;22.37;52.36;98937.46;223707;181;145266;-64
2023/06/10 17:23:38;;;;;;;5.20;2.90;;;;;;;22.37;52.60;98945.25;223603;181;138364;-65
2023/06/10 17:28:42;;;;;;;5.10;2.10;;;;;;;22.38;52.73;98953.02;223679;181;137356;-62
2023/06/10 17:33:45;;;;;;;4.60;2.60;;;;;;;22.38;53.18;98957.36;223619;181;145439;-65
2023/06/10 17:38:48;;;;;;;7.30;2.80;;;;;;;22.39;53.40;98960.85;223689;181;138423;-64
2023/06/10 17:43:52;;;;;;;6.30;2.70;;;;;;;22.37;53.49;98978.61;223812;180;136555;-64
2023/06/10 17:48:55;;;;;;;5.50;3.10;;;;;;;22.35;53.88;98984.61;223683;181;145329;-64
2023/06/10 17:54:01;;;;;;;8.00;3.40;;;;;;;22.36;53.99;98985.16;223751;181;138483;-65
2023/06/10 17:59:11;;;;;;;7.10;3.00;;;;;;;22.35;54.20;98986.16;223736;181;136657;-65
2023/06/10 18:04:15;;;;;;;9.80;3.40;;;;;;;22.23;54.29;98987.28;223626;181;146089;-63
2023/06/10 18:09:18;;;;;;;6.00;3.30;;;;;;;22.18;55.20;98989.84;223793;181;139107;-64
2023/06/10 18:14:31;;;;;;;6.10;3.40;;;;;;;22.13;55.46;98988.34;223735;181;137057;-64
2023/06/10 18:19:34;;;;;;;4.20;2.80;;;;;;;22.04;55.56;98990.80;223633;181;145261;-64
2023/06/10 18:24:38;;;;;;;6.00;3.70;;;;;;;21.96;55.66;98997.23;223694;181;138521;-61
2023/06/10 18:29:41;;;;;;;5.90;3.70;;;;;;;21.94;56.37;99005.06;223796;181;136529;-65
2023/06/10 18:34:46;;;;;;;9.10;4.10;;;;;;;21.89;56.56;99010.34;223768;181;145871;-65
2023/06/10 18:39:49;;;;;;;8.40;3.90;;;;;;;21.93;57.77;99008.33;223698;181;138453;-67
2023/06/10 18:44:52;;;;;;;7.30;3.90;;;;;;;22.06;58.03;99013.23;223710;181;139606;-65
2023/06/10 18:49:55;;;;;;;6.10;4.00;;;;;;;22.00;56.30;99013.98;223774;181;145137;-65
2023/06/10 18:54:59;;;;;;;7.20;3.90;;;;;;;21.71;56.08;99016.86;223762;181;138414;-63
2023/06/10 19:00:03;;;;;;;4.70;3.40;;;;;;;21.51;56.33;99021.52;223750;181;136499;-64
2023/06/10 19:05:09;;;;;;;6.60;3.20;;;;;;;21.35;56.59;99025.77;223637;181;145487;-65
2023/06/10 19:10:13;;;;;;;4.90;3.60;;;;;;;21.21;56.86;99033.00;223708;181;139416;-64
2023/06/10 19:15:16;;;;;;;7.80;3.90;;;;;;;21.09;57.12;99032.11;223741;181;139318;-65
2023/06/10 19:20:28;;;;;;;5.60;3.70;;;;;;;20.97;57.34;99036.98;223779;177;146399;-65
2023/06/10 19:25:32;;;;;;;7.80;3.30;;;;;;;20.87;57.51;99043.54;223747;181;138545;-63
2023/06/10 19:30:35;;;;;;;5.30;3.50;;;;;;;20.79;57.64;99047.02;223748;181;136306;-65
2023/06/10 19:35:41;;;;;;;6.40;4.00;;;;;;;20.70;57.77;99051.30;223621;181;145297;-64
2023/06/10 19:40:44;;;;;;;;;;;;;;;20.61;57.93;99049.80;223763;181;138697;-65
2023/06/10 19:45:47;;;;;;;5.10;3.60;;;;;;;20.50;58.25;99053.75;223869;181;129583;-63
2023/06/10 19:50:50;;;;;;;5.20;3.70;;;;;;;20.40;58.70;99052.97;223705;182;144985;-65
2023/06/10 19:55:54;;;;;;;7.30;4.30;;;;;;;20.32;58.92;99058.45;223761;182;138610;-64
2023/06/10 20:00:57;;;;;;;7.50;4.20;;;;;;;20.26;59.16;99057.45;223756;182;136628;-64
2023/06/10 20:06:02;;;;;;;7.00;4.40;;;;;;;20.24;59.43;99064.06;223800;182;146742;-63
2023/06/10 20:11:05;;;;;;;7.40;4.70;;;;;;;20.18;59.60;99063.05;223714;182;138585;-63
2023/06/10 20:16:10;;;;;;;7.40;4.90;;;;;;;20.12;59.89;99066.98;223728;183;136873;-67
2023/06/10 20:21:14;;;;;;;6.80;4.40;;;;;;;20.08;60.06;99070.95;223496;182;146056;-66
2023/06/10 20:26:23;;;;;;;7.30;4.30;;;;;;;20.05;60.37;99078.04;223744;181;138321;-66
2023/06/10 20:31:26;;;;;;;5.50;4.40;;;;;;;20.01;60.45;99080.41;223690;182;137129;-67
2023/06/10 20:36:30;;;;;;;6.50;4.70;;;;;;;19.96;60.63;99087.58;223747;182;145977;-67
2023/06/10 20:41:35;;;;;;;7.30;4.60;;;;;;;19.93;61.08;99087.34;223793;182;139283;-67
2023/06/10 20:50:42;;;;;;;10.40;5.60;;;;;;;19.99;63.78;99090.81;220156;189;666099;-66
2023/06/10 20:55:46;;;;;;;5.20;4.70;;;;;;;20.31;62.12;99088.88;223359;185;140308;-66
2023/06/10 21:00:49;;;;;;;6.50;5.10;;;;;;;20.18;61.22;99082.88;223522;185;143803;-66
2023/06/10 21:05:53;;;;;;;5.80;4.70;;;;;;;20.09;61.36;99088.17;223674;183;138636;-66
2023/06/10 21:10:56;;;;;;;7.20;5.60;;;;;;;20.06;61.41;99089.17;223671;183;136684;-67
2023/06/10 21:15:59;;;;;;;10.20;5.20;;;;;;;20.05;61.58;99091.31;223586;184;143412;-65
2023/06/10 21:21:03;;;;;;;6.00;5.00;;;;;;;20.01;61.61;99091.48;223664;183;140033;-66
2023/06/10 21:26:07;;;;;;;6.00;4.70;;;;;;;19.98;61.65;99092.34;223700;184;136220;-66
2023/06/10 21:31:24;;;;;;;9.30;5.20;;;;;;;19.97;61.61;99097.92;223622;183;143871;-66
2023/06/10 21:36:36;;;;;;;6.80;5.20;;;;;;;19.92;61.71;99094.63;223714;184;138691;-65
2023/06/10 21:41:40;;;;;;;5.90;4.30;;;;;;;19.85;61.73;99092.20;223697;183;136447;-64
2023/06/10 21:46:43;;;;;;;6.80;4.70;;;;;;;19.76;61.85;99091.83;223732;183;145069;-64
2023/06/10 21:51:47;;;;;;;5.00;4.50;;;;;;;19.72;61.77;99093.23;223637;183;138474;-65
2023/06/10 21:56:50;;;;;;;5.10;4.30;;;;;;;19.69;61.92;99091.38;223640;184;136993;-65
2023/06/10 22:01:53;;;;;;;4.90;4.40;;;;;;;19.65;61.79;99094.98;223582;183;145320;-64
2023/06/10 22:06:56;;;;;;;5.20;4.40;;;;;;;19.61;61.65;99096.02;223528;183;138429;-63
2023/06/10 22:12:00;;;;;;;6.10;4.40;;;;;;;19.58;61.67;99095.92;223608;183;137122;-65
2023/06/10 22:17:03;;;;;;;4.90;4.40;;;;;;;19.54;61.66;99095.07;223566;183;146170;-65
2023/06/10 22:22:08;;;;;;;5.50;4.40;;;;;;;19.54;62.46;99100.33;223511;184;138930;-65
2023/06/10 22:27:12;;;;;;;4.60;4.00;;;;;;;19.58;61.77;99102.59;223531;184;137324;-65
2023/06/10 22:32:15;;;;;;;5.60;4.30;;;;;;;19.52;61.79;99105.94;223663;184;145974;-65
2023/06/10 22:37:20;;;;;;;5.60;4.60;;;;;;;19.49;61.75;99100.06;223497;184;138932;-65
2023/06/10 22:42:23;;;;;;;7.80;5.30;;;;;;;19.50;61.90;99104.16;223599;184;139092;-63
2023/06/10 22:47:27;;;;;;;6.60;5.60;;;;;;;19.45;62.28;99103.61;223639;180;145070;-63
2023/06/10 22:52:30;;;;;;;6.30;4.90;;;;;;;19.37;62.38;99104.30;223660;184;139895;-65
2023/06/10 22:57:34;;;;;;;6.30;5.00;;;;;;;19.31;62.54;99102.72;223758;182;138402;-67
2023/06/10 23:02:46;;;;;;;8.30;5.50;;;;;;;19.25;62.83;99102.33;223775;182;145323;-65
2023/06/10 23:07:49;;;;;;;7.30;5.20;;;;;;;19.16;63.09;99095.23;223799;183;138959;-66
2023/06/10 23:12:52;;;;;;;7.30;5.00;;;;;;;19.07;63.23;99093.20;223624;182;136624;-65
2023/06/10 23:17:57;;;;;;;9.00;5.10;;;;;;;18.99;63.36;99092.01;223682;182;145765;-66
2023/06/10 23:23:00;;;;;;;6.40;5.20;;;;;;;18.90;63.50;99090.70;223760;182;140791;-68
2023/06/10 23:28:04;;;;;;;7.40;5.70;;;;;;;18.86;63.67;99091.12;223793;182;136269;-66
2023/06/10 23:33:07;;;;;;;6.60;5.10;;;;;;;18.82;63.85;99089.70;223805;182;145417;-64
2023/06/10 23:38:11;;;;;;;6.90;5.40;;;;;;;18.76;64.04;99086.84;223723;181;139212;-65
2023/06/10 23:43:14;;;;;;;6.30;5.30;;;;;;;18.77;64.19;99084.55;223816;182;136898;-66
2023/06/10 23:48:17;;;;;;;8.10;5.80;;;;;;;18.79;64.24;99086.22;223741;182;145323;-65
2023/06/10 23:53:21;;;;;;;7.10;6.00;;;;;;;18.79;64.08;99089.03;223806;182;138312;-65
2023/06/10 23:58:24;;;;;;;7.30;5.90;;;;;;;18.78;64.32;99085.36;223767;182;137547;-65
